sensor_id;sensor_type;location;lat;lon;timestamp;pressure;altitude;pressure_sealevel;temperature;humidity
62420;BME280;48460;51.616;5.426;2023-05-20T00:00:20;102241.88;;;13.00;75.24
62420;BME280;48460;51.616;5.426;2023-05-20T00:02:46;102248.16;;;12.96;75.87
62420;BME280;48460;51.616;5.426;2023-05-20T00:05:11;102243.00;;;12.93;75.99
62420;BME280;48460;51.616;5.426;2023-05-20T00:07:37;102238.91;;;12.86;76.26
62420;BME280;48460;51.616;5.426;2023-05-20T00:10:02;102240.59;;;12.87;76.31
62420;BME280;48460;51.616;5.426;2023-05-20T00:12:27;102239.88;;;12.83;76.75
62420;BME280;48460;51.616;5.426;2023-05-20T00:14:53;102239.13;;;12.80;77.26
62420;BME280;48460;51.616;5.426;2023-05-20T00:17:18;102233.00;;;12.79;77.69
62420;BME280;48460;51.616;5.426;2023-05-20T00:19:44;102236.75;;;12.73;78.04
62420;BME280;48460;51.616;5.426;2023-05-20T00:22:09;102242.13;;;12.70;77.77
62420;BME280;48460;51.616;5.426;2023-05-20T00:24:35;102247.53;;;12.67;77.87
62420;BME280;48460;51.616;5.426;2023-05-20T00:27:00;102244.13;;;12.64;78.76
62420;BME280;48460;51.616;5.426;2023-05-20T00:29:26;102242.56;;;12.58;79.31
62420;BME280;48460;51.616;5.426;2023-05-20T00:31:53;102236.56;;;12.54;79.11
62420;BME280;48460;51.616;5.426;2023-05-20T00:34:19;102247.13;;;12.54;79.76
62420;BME280;48460;51.616;5.426;2023-05-20T00:36:44;102236.63;;;12.53;79.94
62420;BME280;48460;51.616;5.426;2023-05-20T00:39:11;102239.50;;;12.47;80.38
62420;BME280;48460;51.616;5.426;2023-05-20T00:41:36;102235.19;;;12.44;80.88
62420;BME280;48460;51.616;5.426;2023-05-20T00:44:02;102234.50;;;12.39;80.64
62420;BME280;48460;51.616;5.426;2023-05-20T00:46:28;102229.34;;;12.36;81.34
62420;BME280;48460;51.616;5.426;2023-05-20T00:48:53;102231.13;;;12.36;81.25
62420;BME280;48460;51.616;5.426;2023-05-20T00:51:19;102234.91;;;12.28;81.87
62420;BME280;48460;51.616;5.426;2023-05-20T00:53:46;102226.31;;;12.23;81.98
62420;BME280;48460;51.616;5.426;2023-05-20T00:56:12;102230.66;;;12.24;82.67
62420;BME280;48460;51.616;5.426;2023-05-20T00:58:37;102227.38;;;12.18;82.48
62420;BME280;48460;51.616;5.426;2023-05-20T01:01:04;102218.75;;;12.14;82.36
62420;BME280;48460;51.616;5.426;2023-05-20T01:03:30;102223.28;;;12.11;82.94
62420;BME280;48460;51.616;5.426;2023-05-20T01:05:56;102222.44;;;12.08;84.20
62420;BME280;48460;51.616;5.426;2023-05-20T01:08:22;102222.50;;;12.07;83.49
62420;BME280;48460;51.616;5.426;2023-05-20T05:18:19;102173.41;;;11.01;98.73
62420;BME280;48460;51.616;5.426;2023-05-20T05:20:45;102167.88;;;11.09;98.69
62420;BME280;48460;51.616;5.426;2023-05-20T05:23:11;102167.47;;;11.21;98.92
62420;BME280;48460;51.616;5.426;2023-05-20T05:25:36;102164.56;;;11.30;99.84
62420;BME280;48460;51.616;5.426;2023-05-20T05:28:02;102170.28;;;11.41;98.91
62420;BME280;48460;51.616;5.426;2023-05-20T05:30:27;102165.41;;;11.56;99.21
62420;BME280;48460;51.616;5.426;2023-05-20T05:32:53;102161.38;;;11.71;98.62
62420;BME280;48460;51.616;5.426;2023-05-20T05:35:18;102167.25;;;11.79;97.86
62420;BME280;48460;51.616;5.426;2023-05-20T05:37:44;102166.75;;;11.93;97.20
62420;BME280;48460;51.616;5.426;2023-05-20T05:40:09;102173.31;;;12.06;97.03
62420;BME280;48460;51.616;5.426;2023-05-20T05:42:35;102160.59;;;12.17;96.68
62420;BME280;48460;51.616;5.426;2023-05-20T05:45:01;102168.63;;;12.38;95.96
62420;BME280;48460;51.616;5.426;2023-05-20T05:47:26;102160.03;;;12.54;94.74
62420;BME280;48460;51.616;5.426;2023-05-20T05:49:56;102162.88;;;12.72;94.26
62420;BME280;48460;51.616;5.426;2023-05-20T05:52:22;102162.97;;;12.91;93.37
62420;BME280;48460;51.616;5.426;2023-05-20T05:54:47;102156.13;;;13.09;92.12
62420;BME280;48460;51.616;5.426;2023-05-20T05:57:13;102158.78;;;13.29;90.65
62420;BME280;48460;51.616;5.426;2023-05-20T05:59:38;102165.88;;;13.49;89.66
62420;BME280;48460;51.616;5.426;2023-05-20T06:02:04;102171.97;;;13.72;88.93
62420;BME280;48460;51.616;5.426;2023-05-20T06:04:29;102157.97;;;13.88;88.03
62420;BME280;48460;51.616;5.426;2023-05-20T06:06:54;102158.88;;;14.08;85.99
62420;BME280;48460;51.616;5.426;2023-05-20T06:09:20;102164.25;;;14.25;85.19
62420;BME280;48460;51.616;5.426;2023-05-20T06:11:45;102163.41;;;14.44;83.94
62420;BME280;48460;51.616;5.426;2023-05-20T06:14:11;102157.75;;;14.51;82.95
62420;BME280;48460;51.616;5.426;2023-05-20T06:16:36;102174.34;;;14.74;81.59
62420;BME280;48460;51.616;5.426;2023-05-20T06:19:02;102167.50;;;14.87;81.10
62420;BME280;48460;51.616;5.426;2023-05-20T06:21:30;102164.97;;;15.03;79.86
62420;BME280;48460;51.616;5.426;2023-05-20T06:23:55;102166.94;;;15.17;78.90
62420;BME280;48460;51.616;5.426;2023-05-20T06:26:21;102166.19;;;15.32;78.79
62420;BME280;48460;51.616;5.426;2023-05-20T06:28:47;102160.00;;;15.49;77.83
62420;BME280;48460;51.616;5.426;2023-05-20T06:31:12;102145.41;;;15.58;76.67
62420;BME280;48460;51.616;5.426;2023-05-20T06:33:37;102152.59;;;15.73;75.58
62420;BME280;48460;51.616;5.426;2023-05-20T06:36:03;102151.81;;;15.88;74.72
62420;BME280;48460;51.616;5.426;2023-05-20T06:38:29;102147.13;;;16.09;74.58
62420;BME280;48460;51.616;5.426;2023-05-20T06:40:55;102143.97;;;16.18;72.73
62420;BME280;48460;51.616;5.426;2023-05-20T06:43:20;102135.31;;;16.31;72.04
62420;BME280;48460;51.616;5.426;2023-05-20T06:45:46;102135.16;;;16.50;71.69
62420;BME280;48460;51.616;5.426;2023-05-20T06:48:11;102121.00;;;16.65;70.34
62420;BME280;48460;51.616;5.426;2023-05-20T06:50:37;102127.19;;;16.81;69.71
62420;BME280;48460;51.616;5.426;2023-05-20T06:53:03;102131.34;;;17.01;68.36
62420;BME280;48460;51.616;5.426;2023-05-20T06:55:28;102134.81;;;17.18;68.08
62420;BME280;48460;51.616;5.426;2023-05-20T06:57:57;102136.66;;;17.31;65.92
62420;BME280;48460;51.616;5.426;2023-05-20T07:00:23;102127.28;;;17.40;66.22
62420;BME280;48460;51.616;5.426;2023-05-20T07:02:48;102136.31;;;17.66;66.25
62420;BME280;48460;51.616;5.426;2023-05-20T07:05:16;102126.81;;;17.76;65.04
62420;BME280;48460;51.616;5.426;2023-05-20T07:07:41;102128.75;;;17.89;64.46
62420;BME280;48460;51.616;5.426;2023-05-20T07:10:07;102120.78;;;18.03;63.27
62420;BME280;48460;51.616;5.426;2023-05-20T07:12:33;102119.59;;;18.21;62.96
62420;BME280;48460;51.616;5.426;2023-05-20T07:15:01;102133.63;;;18.38;61.53
62420;BME280;48460;51.616;5.426;2023-05-20T07:17:26;102127.84;;;18.31;59.90
62420;BME280;48460;51.616;5.426;2023-05-20T07:19:54;102123.56;;;18.29;59.59
62420;BME280;48460;51.616;5.426;2023-05-20T07:22:20;102116.19;;;18.47;60.98
62420;BME280;48460;51.616;5.426;2023-05-20T07:24:47;102121.06;;;18.67;58.01
62420;BME280;48460;51.616;5.426;2023-05-20T07:27:12;102121.16;;;18.80;57.66
62420;BME280;48460;51.616;5.426;2023-05-20T07:29:38;102102.09;;;18.86;57.96
62420;BME280;48460;51.616;5.426;2023-05-20T07:32:04;102112.88;;;18.97;57.04
62420;BME280;48460;51.616;5.426;2023-05-20T07:34:29;102109.09;;;19.14;57.79
62420;BME280;48460;51.616;5.426;2023-05-20T07:36:57;102113.69;;;19.38;55.83
62420;BME280;48460;51.616;5.426;2023-05-20T07:39:26;102110.47;;;19.45;55.62
62420;BME280;48460;51.616;5.426;2023-05-20T07:41:51;102112.66;;;19.66;54.83
62420;BME280;48460;51.616;5.426;2023-05-20T07:44:17;102109.22;;;19.64;53.62
62420;BME280;48460;51.616;5.426;2023-05-20T07:46:43;102102.16;;;19.63;54.14
62420;BME280;48460;51.616;5.426;2023-05-20T07:49:13;102100.53;;;19.98;53.90
62420;BME280;48460;51.616;5.426;2023-05-20T07:51:38;102102.22;;;20.12;53.37
62420;BME280;48460;51.616;5.426;2023-05-20T07:54:04;102104.31;;;20.33;52.28
62420;BME280;48460;51.616;5.426;2023-05-20T07:56:30;102102.88;;;20.40;50.10
62420;BME280;48460;51.616;5.426;2023-05-20T07:58:57;102104.53;;;20.30;50.21
62420;BME280;48460;51.616;5.426;2023-05-20T08:01:23;102110.19;;;20.25;50.21
62420;BME280;48460;51.616;5.426;2023-05-20T08:03:49;102108.22;;;20.53;50.53
62420;BME280;48460;51.616;5.426;2023-05-20T08:06:15;102095.06;;;20.49;48.74
62420;BME280;48460;51.616;5.426;2023-05-20T08:08:41;102095.72;;;20.40;49.59
62420;BME280;48460;51.616;5.426;2023-05-20T08:11:07;102085.13;;;20.15;49.53
62420;BME280;48460;51.616;5.426;2023-05-20T08:13:35;102086.69;;;20.30;50.29
62420;BME280;48460;51.616;5.426;2023-05-20T08:16:04;102087.28;;;20.70;50.46
62420;BME280;48460;51.616;5.426;2023-05-20T08:18:31;102079.75;;;21.11;47.92
62420;BME280;48460;51.616;5.426;2023-05-20T08:20:57;102075.66;;;21.18;47.60
62420;BME280;48460;51.616;5.426;2023-05-20T08:23:25;102079.66;;;21.24;47.04
62420;BME280;48460;51.616;5.426;2023-05-20T08:25:51;102079.78;;;21.22;45.95
62420;BME280;48460;51.616;5.426;2023-05-20T08:28:17;102077.91;;;21.47;46.15
62420;BME280;48460;51.616;5.426;2023-05-20T08:30:42;102075.69;;;21.41;45.69
62420;BME280;48460;51.616;5.426;2023-05-20T08:33:12;102078.63;;;21.49;46.53
62420;BME280;48460;51.616;5.426;2023-05-20T08:35:39;102062.81;;;21.46;44.86
62420;BME280;48460;51.616;5.426;2023-05-20T08:38:05;102066.69;;;21.53;44.81
62420;BME280;48460;51.616;5.426;2023-05-20T08:40:33;102065.00;;;21.85;45.39
62420;BME280;48460;51.616;5.426;2023-05-20T08:42:59;102066.09;;;22.17;45.32
62420;BME280;48460;51.616;5.426;2023-05-20T08:45:30;102064.09;;;22.19;42.91
62420;BME280;48460;51.616;5.426;2023-05-20T08:47:56;102061.41;;;22.30;43.38
62420;BME280;48460;51.616;5.426;2023-05-20T08:50:22;102065.25;;;22.69;44.16
62420;BME280;48460;51.616;5.426;2023-05-20T08:52:48;102063.09;;;22.63;42.33
62420;BME280;48460;51.616;5.426;2023-05-20T08:55:31;102060.69;;;22.60;42.64
62420;BME280;48460;51.616;5.426;2023-05-20T08:58:04;102063.50;;;22.59;42.68
62420;BME280;48460;51.616;5.426;2023-05-20T09:00:30;102063.47;;;22.91;40.83
62420;BME280;48460;51.616;5.426;2023-05-20T09:02:59;102057.06;;;22.82;40.38
62420;BME280;48460;51.616;5.426;2023-05-20T09:05:28;102062.94;;;22.76;40.62
62420;BME280;48460;51.616;5.426;2023-05-20T09:08:06;102051.22;;;22.77;41.73
62420;BME280;48460;51.616;5.426;2023-05-20T09:10:33;102052.78;;;23.12;41.21
62420;BME280;48460;51.616;5.426;2023-05-20T09:13:00;102048.25;;;23.43;40.79
62420;BME280;48460;51.616;5.426;2023-05-20T09:15:26;102047.69;;;23.70;39.57
62420;BME280;48460;51.616;5.426;2023-05-20T09:17:52;102045.38;;;23.96;39.38
62420;BME280;48460;51.616;5.426;2023-05-20T09:20:20;102055.16;;;24.07;39.14
62420;BME280;48460;51.616;5.426;2023-05-20T09:22:50;102046.09;;;24.08;37.91
62420;BME280;48460;51.616;5.426;2023-05-20T09:25:20;102045.25;;;24.07;38.81
62420;BME280;48460;51.616;5.426;2023-05-20T09:27:48;102046.16;;;24.27;38.83
62420;BME280;48460;51.616;5.426;2023-05-20T09:30:23;102036.09;;;24.39;36.44
62420;BME280;48460;51.616;5.426;2023-05-20T09:32:54;102039.59;;;24.10;37.17
62420;BME280;48460;51.616;5.426;2023-05-20T09:35:22;102037.06;;;24.19;37.43
62420;BME280;48460;51.616;5.426;2023-05-20T09:37:51;102044.53;;;23.96;37.40
62420;BME280;48460;51.616;5.426;2023-05-20T09:40:29;102038.81;;;23.79;37.73
62420;BME280;48460;51.616;5.426;2023-05-20T09:43:07;102040.63;;;23.38;38.23
62420;BME280;48460;51.616;5.426;2023-05-20T09:45:33;102036.16;;;23.58;38.06
62420;BME280;48460;51.616;5.426;2023-05-20T09:48:00;102040.25;;;23.83;39.05
62420;BME280;48460;51.616;5.426;2023-05-20T09:50:30;102035.91;;;23.92;36.92
62420;BME280;48460;51.616;5.426;2023-05-20T09:53:01;102045.34;;;23.86;38.04
62420;BME280;48460;51.616;5.426;2023-05-20T09:55:31;102028.06;;;23.79;37.75
62420;BME280;48460;51.616;5.426;2023-05-20T09:57:59;102044.41;;;24.07;37.58
62420;BME280;48460;51.616;5.426;2023-05-20T10:00:26;102036.56;;;24.54;36.53
62420;BME280;48460;51.616;5.426;2023-05-20T10:02:52;102038.03;;;23.88;36.00
62420;BME280;48460;51.616;5.426;2023-05-20T10:14:51;102021.13;;;25.32;34.92
62420;BME280;48460;51.616;5.426;2023-05-20T10:17:54;102013.72;;;25.34;35.54
62420;BME280;48460;51.616;5.426;2023-05-20T10:20:54;102005.03;;;25.50;35.41
62420;BME280;48460;51.616;5.426;2023-05-20T10:23:35;102005.00;;;26.05;34.51
62420;BME280;48460;51.616;5.426;2023-05-20T10:26:05;102009.03;;;26.19;33.34
62420;BME280;48460;51.616;5.426;2023-05-20T10:28:33;102013.72;;;26.35;33.50
62420;BME280;48460;51.616;5.426;2023-05-20T10:31:13;102003.09;;;26.69;33.33
62420;BME280;48460;51.616;5.426;2023-05-20T10:33:54;102005.53;;;26.80;33.31
62420;BME280;48460;51.616;5.426;2023-05-20T10:36:55;101999.69;;;26.67;33.08
62420;BME280;48460;51.616;5.426;2023-05-20T10:42:27;101990.16;;;26.55;32.26
62420;BME280;48460;51.616;5.426;2023-05-20T10:44:54;101984.66;;;26.29;32.10
62420;BME280;48460;51.616;5.426;2023-05-20T10:47:23;101987.47;;;25.74;33.41
62420;BME280;48460;51.616;5.426;2023-05-20T10:49:58;101984.44;;;25.86;32.69
62420;BME280;48460;51.616;5.426;2023-05-20T10:52:31;101995.72;;;26.35;33.63
62420;BME280;48460;51.616;5.426;2023-05-20T10:55:18;101993.78;;;26.28;33.30
62420;BME280;48460;51.616;5.426;2023-05-20T10:57:50;101984.78;;;26.81;33.90
62420;BME280;48460;51.616;5.426;2023-05-20T11:00:30;101982.56;;;27.29;32.49
62420;BME280;48460;51.616;5.426;2023-05-20T11:02:59;101975.91;;;27.57;31.97
62420;BME280;48460;51.616;5.426;2023-05-20T11:05:35;101984.22;;;27.72;32.30
62420;BME280;48460;51.616;5.426;2023-05-20T11:08:07;101982.75;;;27.35;31.99
62420;BME280;48460;51.616;5.426;2023-05-20T11:10:41;101983.22;;;27.22;30.98
62420;BME280;48460;51.616;5.426;2023-05-20T11:13:11;101971.19;;;27.17;32.25
62420;BME280;48460;51.616;5.426;2023-05-20T11:15:49;101965.44;;;26.68;32.84
62420;BME280;48460;51.616;5.426;2023-05-20T11:18:20;101969.28;;;26.21;34.35
62420;BME280;48460;51.616;5.426;2023-05-20T11:20:53;101965.41;;;25.60;33.52
62420;BME280;48460;51.616;5.426;2023-05-20T11:23:27;101955.63;;;25.87;34.49
62420;BME280;48460;51.616;5.426;2023-05-20T11:26:04;101953.09;;;26.03;33.73
62420;BME280;48460;51.616;5.426;2023-05-20T11:28:34;101955.56;;;25.97;33.00
62420;BME280;48460;51.616;5.426;2023-05-20T11:31:05;101955.88;;;25.66;34.26
62420;BME280;48460;51.616;5.426;2023-05-20T11:33:31;101952.09;;;25.86;34.33
62420;BME280;48460;51.616;5.426;2023-05-20T11:35:57;101952.84;;;26.32;34.32
62420;BME280;48460;51.616;5.426;2023-05-20T11:38:30;101954.72;;;26.14;33.89
62420;BME280;48460;51.616;5.426;2023-05-20T11:41:03;101949.06;;;25.44;33.80
62420;BME280;48460;51.616;5.426;2023-05-20T11:43:28;101953.34;;;25.64;33.72
62420;BME280;48460;51.616;5.426;2023-05-20T11:45:57;101942.31;;;25.58;33.70
62420;BME280;48460;51.616;5.426;2023-05-20T11:48:50;101939.09;;;25.72;35.29
62420;BME280;48460;51.616;5.426;2023-05-20T11:51:22;101943.00;;;26.05;34.28
62420;BME280;48460;51.616;5.426;2023-05-20T11:53:52;101937.78;;;26.04;34.05
62420;BME280;48460;51.616;5.426;2023-05-20T11:56:19;101936.75;;;25.87;33.67
62420;BME280;48460;51.616;5.426;2023-05-20T11:58:46;101928.66;;;26.23;34.20
62420;BME280;48460;51.616;5.426;2023-05-20T12:01:13;101922.78;;;26.45;32.78
62420;BME280;48460;51.616;5.426;2023-05-20T12:03:44;101935.16;;;26.30;33.51
62420;BME280;48460;51.616;5.426;2023-05-20T12:06:11;101932.06;;;26.25;33.41
62420;BME280;48460;51.616;5.426;2023-05-20T12:08:39;101931.16;;;25.98;33.29
62420;BME280;48460;51.616;5.426;2023-05-20T12:11:09;101924.53;;;25.92;35.24
62420;BME280;48460;51.616;5.426;2023-05-20T12:13:35;101918.47;;;25.81;34.21
62420;BME280;48460;51.616;5.426;2023-05-20T12:16:04;101917.06;;;25.86;34.41
62420;BME280;48460;51.616;5.426;2023-05-20T12:18:30;101908.72;;;25.80;34.67
62420;BME280;48460;51.616;5.426;2023-05-20T12:20:59;101908.28;;;25.84;34.79
62420;BME280;48460;51.616;5.426;2023-05-20T12:23:25;101911.25;;;25.81;35.35
62420;BME280;48460;51.616;5.426;2023-05-20T12:25:50;101910.75;;;25.50;35.46
62420;BME280;48460;51.616;5.426;2023-05-20T12:28:16;101899.91;;;25.60;34.90
62420;BME280;48460;51.616;5.426;2023-05-20T12:30:51;101902.63;;;25.78;34.63
62420;BME280;48460;51.616;5.426;2023-05-20T12:33:20;101905.31;;;25.78;35.23
62420;BME280;48460;51.616;5.426;2023-05-20T12:35:45;101904.63;;;25.76;35.05
62420;BME280;48460;51.616;5.426;2023-05-20T12:38:11;101904.31;;;25.79;34.99
62420;BME280;48460;51.616;5.426;2023-05-20T12:40:37;101895.44;;;25.51;35.26
62420;BME280;48460;51.616;5.426;2023-05-20T12:43:03;101891.50;;;25.45;35.07
62420;BME280;48460;51.616;5.426;2023-05-20T12:45:29;101908.09;;;25.22;35.68
62420;BME280;48460;51.616;5.426;2023-05-20T12:47:55;101896.00;;;25.27;37.16
62420;BME280;48460;51.616;5.426;2023-05-20T12:50:31;101905.06;;;25.53;36.16
62420;BME280;48460;51.616;5.426;2023-05-20T12:52:57;101900.94;;;25.77;35.70
62420;BME280;48460;51.616;5.426;2023-05-20T12:55:23;101895.75;;;26.37;35.92
62420;BME280;48460;51.616;5.426;2023-05-20T12:57:48;101893.59;;;26.23;35.09
62420;BME280;48460;51.616;5.426;2023-05-20T13:00:17;101893.81;;;25.85;35.60
62420;BME280;48460;51.616;5.426;2023-05-20T13:02:45;101904.59;;;25.58;35.46
62420;BME280;48460;51.616;5.426;2023-05-20T13:05:12;101895.31;;;25.52;36.42
62420;BME280;48460;51.616;5.426;2023-05-20T13:07:37;101891.38;;;25.19;36.63
62420;BME280;48460;51.616;5.426;2023-05-20T13:10:04;101903.19;;;25.36;36.91
62420;BME280;48460;51.616;5.426;2023-05-20T13:12:30;101895.59;;;25.21;37.17
62420;BME280;48460;51.616;5.426;2023-05-20T13:14:56;101888.75;;;25.55;36.83
62420;BME280;48460;51.616;5.426;2023-05-20T13:17:22;101893.06;;;25.48;35.72
62420;BME280;48460;51.616;5.426;2023-05-20T13:19:47;101894.91;;;25.47;36.45
62420;BME280;48460;51.616;5.426;2023-05-20T13:22:13;101889.06;;;25.24;36.21
62420;BME280;48460;51.616;5.426;2023-05-20T13:24:38;101886.09;;;25.27;36.41
62420;BME280;48460;51.616;5.426;2023-05-20T13:27:06;101878.97;;;25.54;37.12
62420;BME280;48460;51.616;5.426;2023-05-20T13:29:32;101879.50;;;25.75;35.82
62420;BME280;48460;51.616;5.426;2023-05-20T13:31:57;101881.75;;;25.62;35.51
62420;BME280;48460;51.616;5.426;2023-05-20T13:34:23;101883.78;;;25.32;36.38
62420;BME280;48460;51.616;5.426;2023-05-20T13:36:49;101877.72;;;25.30;36.09
62420;BME280;48460;51.616;5.426;2023-05-20T13:39:15;101888.66;;;25.29;36.26
62420;BME280;48460;51.616;5.426;2023-05-20T13:41:41;101885.59;;;25.04;37.17
62420;BME280;48460;51.616;5.426;2023-05-20T13:44:06;101879.94;;;24.70;38.39
62420;BME280;48460;51.616;5.426;2023-05-20T13:46:34;101871.63;;;24.53;37.14
62420;BME280;48460;51.616;5.426;2023-05-20T13:49:00;101868.06;;;24.72;37.45
62420;BME280;48460;51.616;5.426;2023-05-20T13:51:25;101856.66;;;24.88;37.15
62420;BME280;48460;51.616;5.426;2023-05-20T13:53:51;101863.69;;;24.99;37.61
62420;BME280;48460;51.616;5.426;2023-05-20T13:56:17;101856.16;;;24.75;37.43
62420;BME280;48460;51.616;5.426;2023-05-20T13:58:42;101862.00;;;24.61;37.28
62420;BME280;48460;51.616;5.426;2023-05-20T14:01:08;101862.31;;;24.48;37.01
62420;BME280;48460;51.616;5.426;2023-05-20T14:03:33;101853.84;;;24.43;37.09
62420;BME280;48460;51.616;5.426;2023-05-20T14:06:01;101859.06;;;24.34;37.74
62420;BME280;48460;51.616;5.426;2023-05-20T14:08:27;101850.19;;;24.15;37.18
62420;BME280;48460;51.616;5.426;2023-05-20T14:10:52;101853.19;;;23.92;37.99
62420;BME280;48460;51.616;5.426;2023-05-20T14:13:21;101851.47;;;24.10;38.72
62420;BME280;48460;51.616;5.426;2023-05-20T14:15:46;101853.25;;;24.39;38.63
62420;BME280;48460;51.616;5.426;2023-05-20T14:18:18;101846.63;;;24.24;37.93
62420;BME280;48460;51.616;5.426;2023-05-20T14:20:50;101850.47;;;24.11;39.04
62420;BME280;48460;51.616;5.426;2023-05-20T14:23:15;101840.25;;;24.15;38.21
62420;BME280;48460;51.616;5.426;2023-05-20T14:25:42;101847.63;;;24.42;38.50
62420;BME280;48460;51.616;5.426;2023-05-20T14:28:08;101834.91;;;24.25;37.78
62420;BME280;48460;51.616;5.426;2023-05-20T14:30:33;101837.38;;;24.36;38.07
62420;BME280;48460;51.616;5.426;2023-05-20T14:32:59;101825.38;;;24.40;38.20
62420;BME280;48460;51.616;5.426;2023-05-20T14:35:24;101820.81;;;24.50;38.39
62420;BME280;48460;51.616;5.426;2023-05-20T14:37:51;101823.41;;;24.42;38.34
62420;BME280;48460;51.616;5.426;2023-05-20T14:40:16;101820.63;;;24.05;38.16
62420;BME280;48460;51.616;5.426;2023-05-20T14:42:43;101820.41;;;24.36;38.49
62420;BME280;48460;51.616;5.426;2023-05-20T14:45:08;101818.28;;;24.49;38.71
62420;BME280;48460;51.616;5.426;2023-05-20T14:47:34;101810.81;;;24.43;38.75
62420;BME280;48460;51.616;5.426;2023-05-20T14:50:00;101810.97;;;24.31;37.89
62420;BME280;48460;51.616;5.426;2023-05-20T14:52:25;101805.28;;;24.34;39.05
62420;BME280;48460;51.616;5.426;2023-05-20T14:54:51;101811.56;;;24.06;38.92
62420;BME280;48460;51.616;5.426;2023-05-20T14:57:16;101805.19;;;24.17;39.17
62420;BME280;48460;51.616;5.426;2023-05-20T14:59:42;101798.84;;;24.08;39.74
62420;BME280;48460;51.616;5.426;2023-05-20T15:02:07;101810.69;;;24.15;39.16
62420;BME280;48460;51.616;5.426;2023-05-20T15:04:33;101805.31;;;24.15;39.07
62420;BME280;48460;51.616;5.426;2023-05-20T15:06:59;101800.72;;;23.98;38.88
62420;BME280;48460;51.616;5.426;2023-05-20T15:09:25;101802.81;;;23.94;38.83
62420;BME280;48460;51.616;5.426;2023-05-20T15:11:51;101785.47;;;23.88;39.28
62420;BME280;48460;51.616;5.426;2023-05-20T15:14:16;101780.38;;;23.76;40.41
62420;BME280;48460;51.616;5.426;2023-05-20T15:16:42;101788.59;;;23.74;39.86
62420;BME280;48460;51.616;5.426;2023-05-20T15:19:09;101776.53;;;23.59;40.10
62420;BME280;48460;51.616;5.426;2023-05-20T15:21:34;101778.94;;;23.81;41.09
62420;BME280;48460;51.616;5.426;2023-05-20T15:24:00;101782.63;;;23.90;39.77
62420;BME280;48460;51.616;5.426;2023-05-20T15:26:28;101782.78;;;23.88;38.52
62420;BME280;48460;51.616;5.426;2023-05-20T15:28:56;101785.72;;;23.76;39.07
62420;BME280;48460;51.616;5.426;2023-05-20T15:31:23;101790.25;;;23.85;39.11
62420;BME280;48460;51.616;5.426;2023-05-20T15:33:49;101775.72;;;23.78;38.61
62420;BME280;48460;51.616;5.426;2023-05-20T15:36:15;101793.50;;;23.69;38.89
62420;BME280;48460;51.616;5.426;2023-05-20T15:38:41;101771.72;;;23.53;39.58
62420;BME280;48460;51.616;5.426;2023-05-20T15:41:09;101771.56;;;23.64;39.57
62420;BME280;48460;51.616;5.426;2023-05-20T15:43:37;101774.56;;;23.80;40.39
62420;BME280;48460;51.616;5.426;2023-05-20T15:46:03;101766.06;;;23.95;39.08
62420;BME280;48460;51.616;5.426;2023-05-20T15:48:28;101771.84;;;24.00;39.60
62420;BME280;48460;51.616;5.426;2023-05-20T15:50:54;101766.88;;;24.05;39.25
62420;BME280;48460;51.616;5.426;2023-05-20T15:53:19;101762.22;;;24.07;39.82
62420;BME280;48460;51.616;5.426;2023-05-20T15:55:45;101770.88;;;24.01;39.50
62420;BME280;48460;51.616;5.426;2023-05-20T15:58:10;101767.88;;;23.94;39.44
62420;BME280;48460;51.616;5.426;2023-05-20T16:00:36;101760.84;;;23.83;39.28
62420;BME280;48460;51.616;5.426;2023-05-20T16:03:01;101759.13;;;23.82;39.27
62420;BME280;48460;51.616;5.426;2023-05-20T16:05:27;101756.06;;;23.77;40.00
62420;BME280;48460;51.616;5.426;2023-05-20T16:07:53;101744.75;;;23.74;39.78
62420;BME280;48460;51.616;5.426;2023-05-20T16:10:19;101753.94;;;23.81;39.91
62420;BME280;48460;51.616;5.426;2023-05-20T16:12:45;101740.34;;;23.82;39.42
62420;BME280;48460;51.616;5.426;2023-05-20T16:15:11;101740.66;;;23.70;39.34
62420;BME280;48460;51.616;5.426;2023-05-20T16:17:36;101739.50;;;23.53;40.10
62420;BME280;48460;51.616;5.426;2023-05-20T16:20:03;101739.09;;;23.48;39.58
62420;BME280;48460;51.616;5.426;2023-05-20T16:22:34;101740.34;;;23.34;39.81
62420;BME280;48460;51.616;5.426;2023-05-20T16:25:01;101736.97;;;23.22;41.14
62420;BME280;48460;51.616;5.426;2023-05-20T16:27:27;101738.47;;;23.05;40.25
62420;BME280;48460;51.616;5.426;2023-05-20T16:29:52;101741.72;;;22.99;41.28
62420;BME280;48460;51.616;5.426;2023-05-20T16:32:18;101736.31;;;22.80;40.34
62420;BME280;48460;51.616;5.426;2023-05-20T16:34:46;101736.84;;;22.73;41.43
62420;BME280;48460;51.616;5.426;2023-05-20T16:37:11;101739.53;;;22.73;42.94
62420;BME280;48460;51.616;5.426;2023-05-20T16:39:37;101731.03;;;22.59;40.49
62420;BME280;48460;51.616;5.426;2023-05-20T16:42:03;101740.47;;;22.53;41.41
62420;BME280;48460;51.616;5.426;2023-05-20T16:44:28;101739.59;;;22.43;42.31
62420;BME280;48460;51.616;5.426;2023-05-20T16:46:54;101743.31;;;22.30;41.74
62420;BME280;48460;51.616;5.426;2023-05-20T16:49:19;101735.13;;;22.22;41.34
62420;BME280;48460;51.616;5.426;2023-05-20T16:51:45;101739.41;;;22.14;41.91
62420;BME280;48460;51.616;5.426;2023-05-20T16:54:11;101732.84;;;22.18;41.87
62420;BME280;48460;51.616;5.426;2023-05-20T16:56:36;101730.88;;;22.20;42.09
62420;BME280;48460;51.616;5.426;2023-05-20T16:59:02;101742.75;;;22.06;41.73
62420;BME280;48460;51.616;5.426;2023-05-20T17:01:27;101741.72;;;22.18;41.89
62420;BME280;48460;51.616;5.426;2023-05-20T17:03:53;101746.22;;;22.18;41.26
62420;BME280;48460;51.616;5.426;2023-05-20T17:08:44;101745.06;;;21.90;41.76
62420;BME280;48460;51.616;5.426;2023-05-20T17:11:10;101738.78;;;22.00;42.94
62420;BME280;48460;51.616;5.426;2023-05-20T17:13:36;101734.59;;;22.07;42.39